Weather reports worldwide

Advertisment
S. Valentino Alla Muta, Italy (16008): temperature & dewpoint: 10.06.2019 13:00:00 - 16.06.2019 13:00:00 (CEST)S. Valentino Alla Muta, Italy (16008): wind speed: 10.06.2019 13:00:00 - 16.06.2019 13:00:00 (CEST)S. Valentino Alla Muta, Italy (16008): wind direction: 10.06.2019 13:00:00 - 16.06.2019 13:00:00 (CEST)S. Valentino Alla Muta, Italy (16008): visibility: 10.06.2019 13:00:00 - 16.06.2019 13:00:00 (CEST)
Date & Time tt [°C] td [°C] ff [km/h] ff [kn] dd vv [km]
16.06.2019 13:00:00 18,0 3,9 15 8 NNE 10
16.06.2019 12:00:00 17,0 4,4 16 9 NNE 10
16.06.2019 11:00:00 16,0 5,0 15 8 NNE 10
16.06.2019 10:00:00 14,6 6,4 15 8 NNE 10
16.06.2019 09:00:00 13,6 7,2 11 6 NNE 20
16.06.2019 08:00:00 12,2 7,5 9 5 ENE 20
16.06.2019 07:00:00 12,4 8,3 9 5 NE 10
16.06.2019 06:00:00 12,6 8,5 8 4 NNE 10
16.06.2019 05:00:00 13,0 10,0 9 5 NNE 10
16.06.2019 04:00:00 12,8 10,2 9 5 NNE 10
16.06.2019 03:00:00 12,0 8,8 5 3 N 10
16.06.2019 02:00:00 12,2 8,7 8 4 N 10
16.06.2019 01:00:00 12,8 9,4 8 4 NNE 10
16.06.2019 00:00:00 15,2 11,8 5 3 N 10
15.06.2019 23:00:00 15,4 12,4 8 4 NNE 10
15.06.2019 22:00:00 16,4 12,0 8 4 NNE 10
15.06.2019 21:00:00 18,2 10,3 8 4 S 15
15.06.2019 20:00:00 19,8 9,1 13 7 SSE 20
15.06.2019 19:00:00 20,0 8,7 11 6 S 20
15.06.2019 18:00:00 20,2 8,5 11 6 S 20
15.06.2019 17:00:00 20,6 7,6 13 7 S 20
15.06.2019 16:00:00 21,8 6,9 16 9 SSW 20
15.06.2019 15:00:00 20,2 10,6 16 9 S 20
15.06.2019 14:00:00 20,2 11,2 16 9 SSE 20
15.06.2019 13:00:00 19,0 10,6 18 10 SSE 10
15.06.2019 12:00:00 18,2 10,3 16 9 SSE 20
15.06.2019 11:00:00 16,8 10,0 13 7 SSE 20
15.06.2019 10:00:00 16,4 9,8 13 7 S 20
15.06.2019 09:00:00 15,2 10,4 11 6 S 20
15.06.2019 08:00:00 13,6 11,5 11 6 SSW 10
15.06.2019 07:00:00 - - - - - -
15.06.2019 06:00:00 13,2 10,5 5 3 NNE 10
15.06.2019 05:00:00 13,0 10,2 5 3 NNE 10
15.06.2019 04:00:00 14,2 10,0 11 6 S 10
15.06.2019 03:00:00 14,0 10,0 11 6 S 10
15.06.2019 02:00:00 14,8 10,6 9 5 S 10
15.06.2019 01:00:00 15,2 9,4 13 7 S 10
15.06.2019 00:00:00 16,2 5,8 9 5 S 10
14.06.2019 23:00:00 17,8 3,3 8 4 S 10
14.06.2019 22:00:00 17,8 3,3 15 8 S 10
14.06.2019 21:00:00 17,8 5,7 5 3 SSW 10
14.06.2019 20:00:00 20,2 8,9 11 6 S 10
14.06.2019 19:00:00 20,8 4,4 11 6 S 10
14.06.2019 18:00:00 21,0 2,8 15 8 SSE 10
14.06.2019 17:00:00 20,8 1,6 15 8 S 10
14.06.2019 16:00:00 20,4 4,0 16 9 S 10
14.06.2019 15:00:00 20,0 1,9 18 10 S 10
14.06.2019 14:00:00 18,8 -2,2 18 10 SSE 10
14.06.2019 13:00:00 19,0 -3,2 16 9 S 10
14.06.2019 12:00:00 18,0 -2,3 21 11 WSW 20
14.06.2019 11:00:00 17,0 -1,6 21 11 SSE 10
14.06.2019 10:00:00 15,2 -1,4 16 9 SSE 40
14.06.2019 09:00:00 12,8 0,5 13 7 SSE 30
14.06.2019 08:00:00 7,8 3,7 5 3 S 10
14.06.2019 07:00:00 7,8 3,3 4 2 N 10
14.06.2019 06:00:00 8,0 3,1 2 1 N 10
14.06.2019 05:00:00 8,2 3,1 4 2 N 10
14.06.2019 04:00:00 9,2 3,6 2 1 - 10
14.06.2019 03:00:00 9,6 3,6 4 2 N 10
14.06.2019 02:00:00 10,2 5,0 4 2 NNE 10
14.06.2019 01:00:00 10,2 5,0 4 2 N 15
14.06.2019 00:00:00 10,8 3,4 2 1 N 15
13.06.2019 23:00:00 12,8 0,2 4 2 N 20
13.06.2019 22:00:00 13,4 -2,1 2 1 NNE 40
13.06.2019 21:00:00 15,2 -7,0 4 2 NNE 50
13.06.2019 20:00:00 17,2 -12,5 13 7 S 70
13.06.2019 19:00:00 19,6 -12,8 15 8 SSW 75
13.06.2019 18:00:00 20,2 -12,4 18 10 SSW 80
13.06.2019 17:00:00 20,2 -15,1 16 9 SSW 75
13.06.2019 16:00:00 20,0 -12,5 18 10 S 70
13.06.2019 15:00:00 19,6 -6,9 18 10 S 50
13.06.2019 14:00:00 19,2 -5,7 16 9 SSW 50
13.06.2019 13:00:00 19,2 -5,7 18 10 SSW 50
13.06.2019 12:00:00 17,8 2,5 22 12 SSW 40
13.06.2019 11:00:00 15,8 9,0 18 10 S 30
13.06.2019 10:00:00 14,2 9,2 18 10 SSE 20
13.06.2019 09:00:00 13,0 10,5 11 6 SSE 20
13.06.2019 08:00:00 11,2 8,4 0 0 N 20
13.06.2019 07:00:00 10,6 8,5 5 3 NNE 20
13.06.2019 06:00:00 10,8 9,2 0 0 N 20
13.06.2019 05:00:00 10,8 9,2 0 0 N 12
13.06.2019 04:00:00 10,8 9,2 0 0 N 10
13.06.2019 03:00:00 10,8 8,2 0 0 N 10
13.06.2019 02:00:00 10,8 8,4 0 0 N 10
13.06.2019 01:00:00 11,0 7,7 0 0 N 10
13.06.2019 00:00:00 11,8 7,7 0 0 N 10
12.06.2019 23:00:00 12,6 7,9 4 2 ENE 10
12.06.2019 22:00:00 13,6 7,8 4 2 NNE 12
12.06.2019 21:00:00 14,8 7,1 4 2 NE 15
12.06.2019 20:00:00 15,4 5,3 8 4 SSW 15
12.06.2019 19:00:00 16,6 4,3 8 4 SSW 15
12.06.2019 18:00:00 16,8 8,0 4 2 WNW 12
12.06.2019 17:00:00 16,8 6,9 9 5 N 12
12.06.2019 16:00:00 17,6 5,5 9 5 NNE 12
12.06.2019 15:00:00 18,2 4,0 15 8 S 12
12.06.2019 14:00:00 17,4 6,0 22 12 SW 12
12.06.2019 13:00:00 17,8 5,7 16 9 S 12
12.06.2019 12:00:00 18,0 9,6 16 9 S 12
12.06.2019 11:00:00 17,2 8,6 22 12 S 12
12.06.2019 10:00:00 16,6 9,8 21 11 S 10
12.06.2019 09:00:00 13,4 10,0 22 12 SSE 10
12.06.2019 08:00:00 12,4 10,8 24 13 SE 8
12.06.2019 07:00:00 11,8 11,0 26 14 SE 4,0
12.06.2019 06:00:00 11,6 11,1 22 12 SSE 1,4
12.06.2019 05:00:00 10,8 10,2 18 10 SSE 5
12.06.2019 04:00:00 10,8 10,2 16 9 S 6
12.06.2019 03:00:00 10,6 10,1 8 4 W 7
12.06.2019 02:00:00 10,6 10,1 4 2 SW 8
12.06.2019 01:00:00 10,8 10,4 4 2 NE 9
12.06.2019 00:00:00 10,8 10,5 11 6 N 8
11.06.2019 23:00:00 11,0 10,4 4 2 S 10
11.06.2019 22:00:00 11,6 10,8 5 3 NNE 9
11.06.2019 21:00:00 12,4 11,3 9 5 E 5
11.06.2019 20:00:00 13,4 10,6 18 10 N 5
11.06.2019 19:00:00 14,4 11,0 9 5 N 9
11.06.2019 18:00:00 16,4 3,5 21 11 S 4,0
11.06.2019 17:00:00 20,0 2,8 28 15 SSW 10
11.06.2019 16:00:00 20,0 3,7 18 10 SSW 12
11.06.2019 15:00:00 20,0 3,7 22 12 S 12
11.06.2019 14:00:00 20,6 2,0 18 10 SSW 12
11.06.2019 13:00:00 20,8 -2,3 22 12 SW 10
11.06.2019 12:00:00 20,6 2,4 16 9 SSW 12
11.06.2019 11:00:00 18,6 9,1 18 10 S 12
11.06.2019 10:00:00 17,0 10,8 16 9 SSE 12
11.06.2019 09:00:00 14,4 11,0 21 11 SSE 12
11.06.2019 08:00:00 12,0 10,6 0 0 N 15
11.06.2019 07:00:00 12,0 10,3 11 6 NNE 15
11.06.2019 06:00:00 12,0 10,6 8 4 NNE 10
11.06.2019 05:00:00 11,8 10,2 9 5 NNE 10
11.06.2019 04:00:00 13,0 10,5 4 2 NE 10
11.06.2019 03:00:00 13,4 9,5 4 2 ENE 10
11.06.2019 02:00:00 14,0 10,2 9 5 S 10
11.06.2019 01:00:00 13,4 12,6 16 9 SSE 10
11.06.2019 00:00:00 13,0 11,9 0 0 N 10
10.06.2019 23:00:00 13,6 11,8 0 0 N 12
10.06.2019 22:00:00 14,2 11,9 0 0 N 12
10.06.2019 21:00:00 14,6 11,6 4 2 SW 12
10.06.2019 20:00:00 15,0 10,6 11 6 SSW 12
10.06.2019 19:00:00 15,0 12,5 9 5 S 12
10.06.2019 18:00:00 15,8 12,4 9 5 SW 12
10.06.2019 17:00:00 15,0 11,0 8 4 SW 12
10.06.2019 16:00:00 16,8 11,5 11 6 S 2,0
10.06.2019 15:00:00 17,4 12,1 18 10 SSE 10
10.06.2019 14:00:00 16,6 13,7 18 10 SSE 10
10.06.2019 13:00:00 15,6 13,1 16 9 SSE 7

tt = temperature
td = dewpoint
ff = wind speed
dd = wind direction
vv = visibility

Next stations